Time;durP1;ratioP1;P1;durP2;ratioP2;P2;SDS_P1;SDS_P2;PMS_P1;PMS_P2;Temp;Humidity;BMP_temperature;BMP_pressure;BME280_temperature;BME280_humidity;BME280_pressure;Samples;Min_cycle;Max_cycle;Signal;HPM_P1;HPM_P2
2021/06/10 00:00:16;;;;;;;12.90;11.50;;;;;;;-144.99;70.97;52140.31;5003884;28;20277;-70
2021/06/10 00:02:46;;;;;;;12.63;11.00;;;;;;;-144.99;71.21;52146.44;5000373;28;20236;-69
2021/06/10 00:05:15;;;;;;;13.30;11.03;;;;;;;-144.99;71.17;52113.84;5003059;28;20203;-70
2021/06/10 00:07:44;;;;;;;14.80;11.33;;;;;;;-144.99;71.17;52126.06;5004774;28;20239;-69
2021/06/10 00:10:16;;;;;;;12.37;11.20;;;;;;;-144.99;71.24;52115.88;5003832;28;20221;-67
2021/06/10 00:12:52;;;;;;;14.77;12.43;;;;;;;-144.99;71.23;52121.97;5000249;28;20334;-68
2021/06/10 00:15:20;;;;;;;15.87;12.63;;;;;;;-144.99;71.16;52162.75;5002384;28;20285;-68
2021/06/10 00:17:47;;;;;;;13.80;12.40;;;;;;;-144.99;71.12;52138.28;5010197;28;20682;-68
2021/06/10 00:20:15;;;;;;;16.60;12.97;;;;;;;-144.99;71.39;52142.38;5000248;28;20257;-69
2021/06/10 00:22:44;;;;;;;13.47;12.07;;;;;;;-144.99;71.51;52154.59;5001249;28;20484;-67
2021/06/10 00:25:26;;;;;;;15.40;11.33;;;;;;;-144.99;71.59;52142.38;4998120;28;20222;-67
2021/06/10 00:27:53;;;;;;;16.50;11.13;;;;;;;-144.99;71.49;52183.13;5002425;28;20230;-67
2021/06/10 00:30:24;;;;;;;11.60;10.23;;;;;;;-144.99;71.57;52158.66;5005696;28;20203;-67
2021/06/10 00:32:53;;;;;;;15.13;13.53;;;;;;;-144.99;71.58;52126.06;5006057;28;20203;-67
2021/06/10 00:35:22;;;;;;;13.40;10.93;;;;;;;-144.99;71.57;52174.97;5004143;28;20203;-68
2021/06/10 00:37:48;;;;;;;13.43;10.83;;;;;;;-144.99;71.90;52154.59;5002998;28;20311;-67
2021/06/10 00:40:15;;;;;;;15.83;11.93;;;;;;;-144.99;71.82;52170.91;5003722;28;20203;-69
2021/06/10 00:42:47;;;;;;;13.03;11.67;;;;;;;-144.99;72.33;52109.75;4997138;28;20306;-68
2021/06/10 00:45:20;;;;;;;15.00;11.07;;;;;;;-144.99;72.26;52150.53;5001416;28;20203;-69
2021/06/10 00:47:48;;;;;;;14.97;12.83;;;;;;;-144.99;72.31;52130.13;4987542;28;20243;-69
2021/06/10 00:50:22;;;;;;;12.73;11.43;;;;;;;-144.99;72.41;52146.44;4988183;28;20208;-69
2021/06/10 00:52:54;;;;;;;14.07;11.07;;;;;;;-144.99;72.32;52154.59;4985060;28;20207;-69
2021/06/10 00:55:20;;;;;;;15.80;12.23;;;;;;;-144.99;72.72;52130.13;4987031;28;20204;-69
2021/06/10 00:57:46;;;;;;;13.00;11.70;;;;;;;-144.99;72.88;52160.72;4987275;28;20336;-69
2021/06/10 01:00:17;;;;;;;12.30;11.07;;;;;;;-144.99;73.09;52154.59;4987358;28;20362;-69
2021/06/10 01:02:46;;;;;;;13.70;12.30;;;;;;;-144.99;73.04;52156.63;4984800;28;20227;-69
2021/06/10 01:05:13;;;;;;;13.67;11.73;;;;;;;-144.99;73.09;52166.81;4987112;28;20692;-69
2021/06/10 01:07:55;;;;;;;12.23;10.93;;;;;;;-144.99;73.30;52152.56;4985857;28;20231;-68
2021/06/10 01:10:36;;;;;;;18.13;12.30;;;;;;;-144.99;73.33;52177.00;4985273;28;20299;-69
2021/06/10 01:13:17;;;;;;;17.97;13.17;;;;;;;-144.99;73.64;52150.53;4985057;28;20207;-70
2021/06/10 01:15:52;;;;;;;17.17;12.87;;;;;;;-144.99;73.84;52148.47;4986372;28;20267;-69
2021/06/10 01:18:22;;;;;;;14.10;11.27;;;;;;;-144.99;74.04;52199.44;4986599;28;20322;-69
2021/06/10 01:20:52;;;;;;;15.70;11.47;;;;;;;-144.99;74.05;52150.53;4985382;28;20211;-68
2021/06/10 01:23:30;;;;;;;12.37;11.07;;;;;;;-144.99;74.00;52154.59;4986002;28;20215;-66
2021/06/10 01:26:16;;;;;;;17.63;12.80;;;;;;;-144.99;74.27;52138.28;4983548;28;20208;-67
2021/06/10 01:28:58;;;;;;;16.57;12.63;;;;;;;-144.99;74.14;52166.81;4984215;28;20231;-69
2021/06/10 01:31:24;;;;;;;18.53;11.37;;;;;;;-144.99;74.23;52138.28;4983840;28;20219;-68
2021/06/10 01:33:57;;;;;;;13.90;10.23;;;;;;;-144.99;73.91;52154.59;4985367;28;20219;-67
2021/06/10 01:36:27;;;;;;;12.93;11.63;;;;;;;-144.99;73.84;52146.44;4981957;28;20217;-70
2021/06/10 01:39:03;;;;;;;12.27;10.90;;;;;;;-144.99;73.55;52134.22;4982997;28;20286;-68
2021/06/10 01:41:30;;;;;;;14.40;12.30;;;;;;;-144.99;73.48;52160.72;4983524;28;20269;-68
2021/06/10 01:44:02;;;;;;;13.37;10.93;;;;;;;-144.99;73.49;52154.59;4984746;28;20351;-66
2021/06/10 01:46:32;;;;;;;17.03;11.80;;;;;;;-144.99;73.77;52195.34;4999878;28;20751;-68
2021/06/10 01:49:03;;;;;;;12.77;11.47;;;;;;;-144.99;73.66;52170.91;5022279;28;20233;-66
2021/06/10 01:51:33;;;;;;;12.03;10.43;;;;;;;-144.99;73.65;52174.97;5020698;28;20228;-67
2021/06/10 01:54:03;;;;;;;12.27;9.97;;;;;;;-144.99;73.77;52154.59;5023356;28;20292;-66
2021/06/10 01:56:33;;;;;;;11.40;9.53;;;;;;;-144.99;74.15;52130.13;5023338;28;20207;-67
2021/06/10 01:59:04;;;;;;;13.23;11.83;;;;;;;-144.99;74.23;52138.28;5017638;28;20218;-66
2021/06/10 02:01:35;;;;;;;12.30;10.53;;;;;;;-144.99;74.59;52166.81;5025191;28;20616;-65
2021/06/10 02:04:02;;;;;;;12.47;10.60;;;;;;;-144.99;74.75;52179.06;5022457;28;20675;-66
2021/06/10 02:06:35;;;;;;;12.50;11.17;;;;;;;-144.99;74.90;52130.13;5023859;28;20210;-66
2021/06/10 02:09:07;;;;;;;14.87;11.80;;;;;;;-144.99;75.31;52174.97;5020943;28;20226;-67
2021/06/10 02:11:39;;;;;;;14.37;11.93;;;;;;;-144.99;75.48;52221.84;5023330;28;20289;-66
2021/06/10 02:14:08;;;;;;;13.83;11.83;;;;;;;-144.99;76.17;52187.19;5016233;28;20229;-66
2021/06/10 02:16:40;;;;;;;14.43;10.37;;;;;;;-144.99;76.43;52183.13;5021148;28;20672;-66
2021/06/10 02:19:06;;;;;;;14.30;12.27;;;;;;;-144.99;76.40;52170.91;5017053;28;20328;-66
2021/06/10 02:21:35;;;;;;;19.87;12.30;;;;;;;-144.99;76.43;52158.66;5022530;28;20644;-69
2021/06/10 02:24:05;;;;;;;14.50;12.93;;;;;;;-144.99;76.58;52191.28;5022736;28;20206;-69
2021/06/10 02:26:31;;;;;;;13.60;10.53;;;;;;;-144.99;76.61;52146.44;5023783;28;20272;-69
2021/06/10 02:28:57;;;;;;;13.33;12.00;;;;;;;-144.99;76.90;52191.28;5019992;28;20230;-68
2021/06/10 02:31:24;;;;;;;14.23;12.17;;;;;;;-144.99;76.78;52150.53;5020388;28;20213;-68
2021/06/10 02:33:56;;;;;;;16.13;12.97;;;;;;;-144.99;77.02;52158.66;5018623;28;20682;-69
2021/06/10 02:36:23;;;;;;;18.50;12.53;;;;;;;-144.99;77.13;52187.19;5021724;28;20677;-67
2021/06/10 02:38:54;;;;;;;16.37;14.63;;;;;;;-144.99;77.32;52191.28;5020972;28;20245;-69
2021/06/10 02:41:29;;;;;;;15.97;12.93;;;;;;;-144.99;77.58;52179.06;5014476;28;20213;-69
2021/06/10 02:43:57;;;;;;;18.00;13.03;;;;;;;-144.99;78.09;52158.66;5020296;28;20210;-68
2021/06/10 02:46:26;;;;;;;14.53;13.03;;;;;;;-144.99;78.39;52179.06;5020848;28;20228;-69
2021/06/10 02:48:58;;;;;;;18.03;15.67;;;;;;;-144.99;78.50;52177.00;5019223;28;20230;-68
2021/06/10 02:51:29;;;;;;;16.57;12.73;;;;;;;-144.99;78.57;52187.19;5020440;28;20208;-67
2021/06/10 02:54:02;;;;;;;14.97;13.37;;;;;;;-144.99;78.19;52191.28;5022593;28;20339;-69
2021/06/10 02:56:32;;;;;;;17.30;13.97;;;;;;;-144.99;78.12;52183.13;5017503;28;20207;-71
2021/06/10 02:59:00;;;;;;;15.30;13.73;;;;;;;-144.99;78.24;52179.06;5019962;28;20309;-71
2021/06/10 03:01:30;;;;;;;17.20;15.33;;;;;;;-144.99;78.08;52187.19;5019923;28;20206;-71
2021/06/10 03:03:59;;;;;;;17.20;12.93;;;;;;;-144.99;78.22;52170.91;5016130;28;20212;-71
2021/06/10 03:06:26;;;;;;;16.10;14.50;;;;;;;-144.99;78.21;52174.97;5021078;28;20272;-71
2021/06/10 03:08:54;;;;;;;15.67;14.07;;;;;;;-144.99;78.31;52187.19;5021431;28;20251;-71
2021/06/10 03:11:22;;;;;;;16.57;13.87;;;;;;;-144.99;78.06;52179.06;5021323;28;20211;-70
2021/06/10 03:13:53;;;;;;;16.40;12.80;;;;;;;-144.99;78.29;52170.91;5022025;28;20217;-70
2021/06/10 03:16:19;;;;;;;14.17;12.43;;;;;;;-144.99;78.10;52146.44;5016980;28;20271;-70
2021/06/10 03:18:47;;;;;;;16.83;13.40;;;;;;;-144.99;78.04;52209.63;5023243;28;20281;-67
2021/06/10 03:21:14;;;;;;;15.37;13.87;;;;;;;-144.99;78.45;52187.19;5022088;28;20203;-71
2021/06/10 03:23:43;;;;;;;14.80;13.30;;;;;;;-144.99;78.40;52183.13;5023602;28;20209;-71
2021/06/10 03:26:13;;;;;;;15.00;12.67;;;;;;;-144.99;78.56;52223.88;5023901;28;20199;-72
2021/06/10 03:28:42;;;;;;;14.90;13.33;;;;;;;-144.99;78.55;52217.78;5025930;28;20226;-71
2021/06/10 03:31:09;;;;;;;13.57;11.53;;;;;;;-144.99;78.22;52181.09;5026637;28;20653;-73
2021/06/10 03:33:37;;;;;;;14.43;12.90;;;;;;;-144.99;77.96;52191.28;5025269;28;20636;-73
2021/06/10 03:36:10;;;;;;;13.93;12.43;;;;;;;-144.99;77.91;52174.97;5026483;28;20206;-70
2021/06/10 03:38:38;;;;;;;12.90;11.47;;;;;;;-144.99;77.81;52170.91;5024553;28;20694;-71
2021/06/10 03:41:11;;;;;;;13.30;11.90;;;;;;;-144.99;78.23;52150.53;5023542;28;20268;-70
2021/06/10 03:43:44;;;;;;;14.00;12.60;;;;;;;-144.99;78.27;52158.66;5027688;28;20213;-68
2021/06/10 03:46:14;;;;;;;12.53;11.20;;;;;;;-144.99;78.48;52179.06;5021904;28;20553;-68
2021/06/10 03:48:41;;;;;;;17.00;14.63;;;;;;;-144.99;78.38;52170.91;5029654;28;20235;-68
2021/06/10 03:51:14;;;;;;;16.33;12.90;;;;;;;-144.99;78.40;52179.06;5027069;28;20213;-69
2021/06/10 03:53:40;;;;;;;13.83;12.07;;;;;;;-144.99;78.31;52166.81;5023387;28;20301;-68
2021/06/10 03:56:06;;;;;;;12.97;11.57;;;;;;;-144.99;78.42;52158.66;5026515;28;20228;-65
2021/06/10 03:58:32;;;;;;;15.43;12.97;;;;;;;-144.99;78.71;52121.97;5026062;28;20244;-67
2021/06/10 04:00:59;;;;;;;14.50;12.00;;;;;;;-144.99;78.56;52158.66;5028008;28;20241;-70
2021/06/10 04:03:28;;;;;;;14.87;12.43;;;;;;;-144.99;78.89;52166.81;5030686;28;20220;-70
2021/06/10 04:05:55;;;;;;;24.73;12.40;;;;;;;-144.99;78.98;52179.06;5030551;28;20212;-70
2021/06/10 04:08:23;;;;;;;18.53;13.97;;;;;;;-144.99;78.70;52146.44;5030953;28;20242;-73
2021/06/10 04:10:49;;;;;;;15.37;11.43;;;;;;;-144.99;78.42;52121.97;5029945;28;20271;-70
2021/06/10 04:13:15;;;;;;;14.60;11.30;;;;;;;-144.99;78.75;52130.13;5030344;28;20210;-72
2021/06/10 04:15:42;;;;;;;13.83;12.40;;;;;;;-144.99;78.89;52146.44;5029026;28;20213;-68
2021/06/10 04:18:18;;;;;;;15.23;12.03;;;;;;;-144.99;78.78;52128.09;5026106;28;20222;-70
2021/06/10 04:20:45;;;;;;;11.70;10.50;;;;;;;-144.99;78.35;52189.25;5022584;28;20209;-71
2021/06/10 04:23:14;;;;;;;13.27;11.57;;;;;;;-144.99;78.31;52183.13;5022080;28;20210;-71
2021/06/10 04:25:45;;;;;;;16.03;11.60;;;;;;;-144.99;78.07;52130.13;5025240;28;20216;-71
2021/06/10 04:28:12;;;;;;;13.07;11.27;;;;;;;-144.99;78.02;52187.19;5025647;28;20217;-72
2021/06/10 04:30:38;;;;;;;17.03;11.80;;;;;;;-144.99;77.56;52162.75;5025112;28;20578;-71
2021/06/10 04:33:10;;;;;;;14.63;12.13;;;;;;;-144.99;77.51;52142.38;5021591;28;20305;-71
2021/06/10 04:35:39;;;;;;;12.63;10.73;;;;;;;-144.99;77.44;52154.59;5025570;28;20617;-72
2021/06/10 04:38:08;;;;;;;12.87;10.43;;;;;;;-144.99;77.90;52162.75;5023961;28;20587;-72
2021/06/10 04:40:41;;;;;;;13.33;10.97;;;;;;;-144.99;78.38;52146.44;5024085;28;20208;-72
2021/06/10 04:43:08;;;;;;;15.53;10.57;;;;;;;-144.99;78.29;52170.91;5022924;28;20205;-72
2021/06/10 04:45:34;;;;;;;14.37;12.23;;;;;;;-144.99;78.10;52166.81;5024284;28;20221;-72
2021/06/10 04:48:03;;;;;;;11.67;10.13;;;;;;;-144.99;77.98;52134.22;5022316;28;20230;-72
2021/06/10 04:50:31;;;;;;;14.33;10.70;;;;;;;-144.99;77.38;52154.59;5025302;28;20210;-72
2021/06/10 04:52:57;;;;;;;13.17;11.67;;;;;;;-144.99;77.42;52142.38;5017739;28;20206;-71
2021/06/10 04:55:27;;;;;;;16.07;11.60;;;;;;;-144.99;76.73;52162.75;5020828;28;20222;-73
2021/06/10 04:57:54;;;;;;;12.43;11.13;;;;;;;-144.99;77.14;52154.59;5023967;28;20230;-73
2021/06/10 05:00:21;;;;;;;11.17;10.00;;;;;;;-144.99;77.03;52164.78;5022282;28;20264;-73
2021/06/10 05:02:50;;;;;;;13.50;12.10;;;;;;;-144.99;76.88;52154.59;5025082;28;20207;-69
2021/06/10 05:05:19;;;;;;;14.60;10.97;;;;;;;-144.99;76.76;52113.84;5023907;28;20843;-70
2021/06/10 05:07:45;;;;;;;15.23;13.27;;;;;;;-144.99;75.55;52130.13;5023232;28;20226;-70
2021/06/10 05:10:12;;;;;;;12.67;11.37;;;;;;;-144.99;75.59;52146.44;5023674;28;20320;-69
2021/06/10 05:12:38;;;;;;;16.60;12.50;;;;;;;-144.99;74.84;52142.38;5023399;28;20642;-69
2021/06/10 05:15:07;;;;;;;15.03;13.37;;;;;;;-144.99;73.89;52134.22;4329386;28;10000729;-70
2021/06/10 05:17:33;;;;;;;16.43;12.30;;;;;;;-144.99;74.28;52124.03;4675642;28;9999906;-70
2021/06/10 05:20:03;;;;;;;14.17;11.77;;;;;;;-144.99;73.91;52187.19;5026513;28;20317;-70
2021/06/10 05:22:32;;;;;;;13.70;12.30;;;;;;;-144.99;73.25;52162.75;5026063;28;20214;-70
2021/06/10 05:24:58;;;;;;;14.07;12.30;;;;;;;-144.99;73.76;52146.44;5026798;28;20348;-71
2021/06/10 05:27:24;;;;;;;10.80;9.73;;;;;;;-144.99;73.13;52174.97;5026679;28;20256;-70
2021/06/10 05:29:53;;;;;;;14.60;12.40;;;;;;;-144.99;72.97;52121.97;5026225;28;20225;-70
2021/06/10 05:32:23;;;;;;;12.40;11.10;;;;;;;-144.99;72.38;52134.22;5025899;28;20298;-69
2021/06/10 05:34:52;;;;;;;12.97;10.03;;;;;;;-144.99;71.46;52107.72;5026332;28;20206;-70
2021/06/10 05:37:18;;;;;;;11.17;9.97;;;;;;;-144.99;71.31;52134.22;5020166;28;20210;-69
2021/06/10 05:39:44;;;;;;;11.63;10.33;;;;;;;-144.99;70.96;52121.97;5025225;28;20203;-70
2021/06/10 05:42:11;;;;;;;11.47;9.57;;;;;;;-144.99;70.59;52142.38;5025749;28;20225;-69
2021/06/10 05:44:40;;;;;;;11.80;9.73;;;;;;;-144.99;70.10;52154.59;5020288;28;20306;-69
2021/06/10 05:47:06;;;;;;;14.40;9.37;;;;;;;-144.99;69.10;52158.66;5018782;28;20302;-69
2021/06/10 05:49:36;;;;;;;15.37;10.77;;;;;;;-144.99;68.60;52150.53;5025903;28;20230;-69
2021/06/10 05:52:03;;;;;;;12.33;9.10;;;;;;;-144.99;68.11;52113.84;5024468;28;20214;-70
2021/06/10 05:54:33;;;;;;;11.90;8.80;;;;;;;-144.99;67.55;52130.13;5025614;28;20230;-70
2021/06/10 05:57:03;;;;;;;10.73;8.87;;;;;;;-144.99;67.68;52142.38;5027244;28;20224;-69
2021/06/10 05:59:32;;;;;;;12.40;10.27;;;;;;;-144.99;67.82;52097.53;5027253;28;20206;-69
2021/06/10 06:02:01;;;;;;;12.13;9.90;;;;;;;-144.99;66.98;52142.38;5026712;28;20222;-69
2021/06/10 06:04:27;;;;;;;10.37;9.23;;;;;;;-144.99;66.50;52140.31;5026607;28;20745;-69
2021/06/10 06:06:57;;;;;;;12.57;10.60;;;;;;;-144.99;66.57;52160.72;5025879;28;20208;-70
2021/06/10 06:09:29;;;;;;;14.87;10.27;;;;;;;-144.99;66.41;52097.53;5024924;28;20228;-70
2021/06/10 06:11:58;;;;;;;13.57;10.30;;;;;;;-144.99;66.34;52121.97;5023934;28;20203;-71
2021/06/10 06:14:27;;;;;;;12.57;8.90;;;;;;;-144.99;66.13;52117.91;5025632;28;20206;-69
2021/06/10 06:16:54;;;;;;;15.73;10.53;;;;;;;-144.99;65.72;52134.22;5024232;28;20289;-70
2021/06/10 06:19:23;;;;;;;11.87;9.90;;;;;;;-144.99;65.78;52154.59;5025103;28;20218;-70
2021/06/10 06:21:52;;;;;;;11.40;9.00;;;;;;;-144.99;65.72;52146.44;5024665;28;20259;-70
2021/06/10 06:24:19;;;;;;;14.33;9.50;;;;;;;-144.99;65.73;52101.59;5024946;28;20211;-70
2021/06/10 06:26:51;;;;;;;13.50;9.80;;;;;;;-144.99;65.18;52132.19;5025489;28;20607;-70
2021/06/10 06:29:17;;;;;;;11.53;10.37;;;;;;;-144.99;64.35;52126.06;5025417;28;20329;-70
2021/06/10 06:31:46;;;;;;;12.20;9.83;;;;;;;-144.99;64.19;52105.69;5023526;28;20403;-70
2021/06/10 06:34:12;;;;;;;10.50;8.90;;;;;;;-144.99;64.02;52126.06;5025150;28;20257;-70
2021/06/10 06:36:41;;;;;;;10.60;8.83;;;;;;;-144.99;63.51;52130.13;5024638;28;20322;-70
2021/06/10 06:39:11;;;;;;;10.27;7.97;;;;;;;-144.99;63.24;52142.38;5025418;28;20232;-70
2021/06/10 06:41:41;;;;;;;9.30;8.10;;;;;;;-144.99;63.12;52121.97;5024189;28;20294;-70
2021/06/10 06:44:11;;;;;;;9.40;7.60;;;;;;;-144.99;62.81;52105.69;5024974;28;20599;-70
2021/06/10 06:46:37;;;;;;;13.97;8.27;;;;;;;-144.99;62.60;52105.69;5023636;28;20219;-69
2021/06/10 06:49:06;;;;;;;11.33;7.40;;;;;;;-144.99;61.55;52075.09;5024655;28;20229;-70
2021/06/10 06:51:35;;;;;;;9.33;5.93;;;;;;;-144.99;60.09;52052.69;5024345;28;20209;-70
2021/06/10 06:54:01;;;;;;;7.87;6.60;;;;;;;-144.99;59.72;52121.97;5024945;28;20214;-70
2021/06/10 06:56:28;;;;;;;8.80;7.80;;;;;;;-144.99;60.00;52077.16;5024621;28;20739;-71
2021/06/10 06:58:56;;;;;;;7.50;6.23;;;;;;;-144.99;59.62;52154.59;5023744;28;20229;-70
2021/06/10 07:01:22;;;;;;;11.30;5.30;;;;;;;-144.99;58.91;52073.06;5028167;28;20613;-70
2021/06/10 07:03:48;;;;;;;8.97;5.40;;;;;;;-144.99;56.88;52083.25;5028534;28;20625;-70
2021/06/10 07:06:14;;;;;;;8.83;5.90;;;;;;;-144.99;56.12;52071.03;5027744;28;20214;-70
2021/06/10 07:08:41;;;;;;;6.93;5.13;;;;;;;-144.99;55.90;52071.03;5028085;28;20238;-71
2021/06/10 07:11:12;;;;;;;5.30;3.90;;;;;;;-144.99;54.83;52077.16;5028821;28;20206;-70
2021/06/10 07:13:39;;;;;;;7.00;4.90;;;;;;;-144.99;54.65;52101.59;5029242;28;20222;-70
2021/06/10 07:16:11;;;;;;;6.37;5.13;;;;;;;-144.99;54.16;52073.06;5026029;28;20293;-70
2021/06/10 07:18:38;;;;;;;9.53;4.47;;;;;;;-144.99;53.22;52060.84;5027599;28;20273;-70
2021/06/10 07:21:07;;;;;;;4.33;3.27;;;;;;;-144.99;52.22;52081.22;5032139;28;20218;-69
2021/06/10 07:23:38;;;;;;;3.93;3.10;;;;;;;-144.99;51.29;52040.47;5031692;28;20219;-69
2021/06/10 07:26:07;;;;;;;7.37;4.50;;;;;;;-144.99;50.71;52069.00;5031768;28;20215;-69
2021/06/10 07:28:33;;;;;;;5.60;3.27;;;;;;;-144.99;50.62;52044.53;5031826;28;20395;-69
2021/06/10 07:31:00;;;;;;;6.83;4.10;;;;;;;-144.99;50.58;52101.59;5031737;28;20774;-69
2021/06/10 07:33:27;;;;;;;11.37;3.93;;;;;;;-144.99;51.02;52077.16;5027793;28;20216;-70
2021/06/10 07:35:56;;;;;;;4.73;3.53;;;;;;;-144.99;50.21;52069.00;5032323;28;20210;-70
2021/06/10 07:38:22;;;;;;;6.30;4.47;;;;;;;-144.99;50.36;52085.31;5031012;28;20229;-70
2021/06/10 07:40:51;;;;;;;6.07;3.90;;;;;;;-144.99;49.85;52075.09;5028060;28;20313;-70
2021/06/10 07:43:17;;;;;;;4.57;2.87;;;;;;;-144.99;49.85;52048.63;5031841;28;20678;-70
2021/06/10 07:45:46;;;;;;;7.07;4.33;;;;;;;-144.99;48.91;52077.16;5025874;28;20216;-72
2021/06/10 07:48:13;;;;;;;6.13;3.53;;;;;;;-144.99;48.91;52050.66;5034517;28;20846;-71
2021/06/10 07:50:44;;;;;;;7.50;4.57;;;;;;;-144.99;47.37;52024.16;5033556;28;20271;-71
2021/06/10 07:53:24;;;;;;;4.80;4.30;;;;;;;-144.99;46.88;52032.31;5035622;28;20247;-71
2021/06/10 07:55:54;;;;;;;7.20;5.53;;;;;;;-144.99;45.61;52030.28;5036067;28;20216;-70
2021/06/10 07:58:21;;;;;;;9.27;5.93;;;;;;;-144.99;46.52;52020.09;5037039;28;20238;-71
2021/06/10 08:00:50;;;;;;;6.80;5.33;;;;;;;-144.99;47.00;52011.94;5035641;28;20260;-71
2021/06/10 08:03:16;;;;;;;8.63;6.47;;;;;;;-144.99;46.93;52054.72;5030996;28;20550;-71
2021/06/10 08:05:43;;;;;;;8.40;5.17;;;;;;;-144.99;46.59;52016.00;5035573;28;20286;-71
2021/06/10 08:08:09;;;;;;;7.10;5.37;;;;;;;-144.99;45.11;52005.81;5034071;28;20419;-71
2021/06/10 08:10:39;;;;;;;9.60;7.07;;;;;;;-144.99;45.39;51999.69;5035061;28;20275;-70
2021/06/10 08:13:11;;;;;;;12.20;7.30;;;;;;;-144.99;45.48;52048.63;5036234;28;20244;-71
2021/06/10 08:15:40;;;;;;;8.87;7.47;;;;;;;-144.99;45.32;52066.97;5034152;28;20712;-71
2021/06/10 08:18:07;;;;;;;9.47;4.40;;;;;;;-144.99;45.52;51995.63;5031547;28;20250;-71
2021/06/10 08:20:34;;;;;;;8.03;5.53;;;;;;;-144.99;45.31;52044.53;5026424;28;20213;-72
2021/06/10 08:23:05;;;;;;;7.67;5.63;;;;;;;-144.99;44.81;51991.56;5033206;28;20203;-71
2021/06/10 08:25:35;;;;;;;9.40;6.17;;;;;;;-144.99;44.83;52024.16;5035024;28;20509;-71
2021/06/10 08:28:04;;;;;;;7.17;4.63;;;;;;;-144.99;45.25;52001.75;5038005;28;20312;-71
2021/06/10 08:30:31;;;;;;;10.10;6.53;;;;;;;-144.99;44.61;52020.09;5035256;28;20234;-70
2021/06/10 08:32:58;;;;;;;10.07;4.90;;;;;;;-144.99;44.47;51989.50;5030437;28;20207;-71
2021/06/10 08:35:24;;;;;;;11.13;6.67;;;;;;;-144.99;44.04;51965.06;5028881;28;20216;-72
2021/06/10 08:37:50;;;;;;;9.67;6.77;;;;;;;-144.99;43.44;51999.69;5029496;28;20338;-71
2021/06/10 08:40:19;;;;;;;6.63;4.47;;;;;;;-144.99;43.44;51987.47;5028856;28;20699;-71
2021/06/10 08:42:48;;;;;;;8.03;5.70;;;;;;;-144.99;43.69;51967.09;5027312;28;20673;-71
2021/06/10 08:45:22;;;;;;;8.07;6.13;;;;;;;-144.99;43.39;51969.13;5023902;28;20213;-71
2021/06/10 08:47:49;;;;;;;7.43;6.60;;;;;;;-144.99;43.41;52007.84;5019653;28;20222;-72
2021/06/10 08:50:22;;;;;;;9.47;6.60;;;;;;;-144.99;43.51;51979.31;5027464;28;20232;-71
2021/06/10 08:52:48;;;;;;;10.07;7.33;;;;;;;-144.99;43.64;52016.00;5026337;28;20473;-72
2021/06/10 08:55:15;;;;;;;9.00;8.20;;;;;;;-144.99;43.43;51954.88;5027460;28;20212;-70
2021/06/10 08:57:42;;;;;;;7.30;5.60;;;;;;;-144.99;43.38;51971.16;5030337;28;20265;-70
2021/06/10 09:00:15;;;;;;;8.10;5.87;;;;;;;-144.99;43.17;52016.00;5031629;28;20218;-71
2021/06/10 09:02:49;;;;;;;5.90;5.10;;;;;;;-144.99;43.65;52020.09;5028757;28;20249;-71
2021/06/10 09:05:19;;;;;;;7.23;6.00;;;;;;;-144.99;43.66;51979.31;5026424;28;20689;-71
2021/06/10 09:07:56;;;;;;;12.07;8.70;;;;;;;-144.99;43.60;52018.03;5026320;28;20700;-72
2021/06/10 09:10:26;;;;;;;9.67;6.57;;;;;;;-144.99;43.77;52003.78;5026551;28;20409;-72
2021/06/10 09:13:04;;;;;;;9.00;6.57;;;;;;;-144.99;43.37;51979.31;5026580;28;20381;-72
2021/06/10 09:15:32;;;;;;;9.37;6.27;;;;;;;-144.99;43.24;51944.69;5025277;28;20221;-71
2021/06/10 09:18:01;;;;;;;7.53;6.33;;;;;;;-144.99;42.65;51967.09;5023139;28;20339;-71
2021/06/10 09:20:33;;;;;;;8.00;4.60;;;;;;;-144.99;42.63;51938.56;5025124;28;20211;-71
2021/06/10 09:23:27;;;;;;;10.50;6.57;;;;;;;-144.99;42.33;51971.16;5025401;28;20205;-71
2021/06/10 09:26:00;;;;;;;6.53;5.40;;;;;;;-144.99;42.59;51930.41;5008844;28;20250;-71
2021/06/10 09:28:33;;;;;;;9.87;6.47;;;;;;;-144.99;41.97;51930.41;5026856;28;20254;-71
2021/06/10 09:31:00;;;;;;;12.13;5.13;;;;;;;-144.99;41.95;51942.63;5027943;28;20384;-72
2021/06/10 09:33:39;;;;;;;6.53;4.83;;;;;;;-144.99;42.07;51991.56;5028452;28;20226;-72
2021/06/10 09:36:07;;;;;;;9.80;4.80;;;;;;;-144.99;41.91;51910.03;5025226;28;20693;-72
2021/06/10 09:38:33;;;;;;;7.57;6.53;;;;;;;-144.99;41.68;51946.72;5028415;28;20263;-72
2021/06/10 09:41:04;;;;;;;7.93;6.50;;;;;;;-144.99;41.36;51938.56;5027570;28;20702;-72
2021/06/10 09:43:47;;;;;;;8.00;7.00;;;;;;;-144.99;41.91;51916.16;5027224;28;20205;-72
2021/06/10 09:46:13;;;;;;;9.13;6.50;;;;;;;-144.99;41.62;51946.72;5028286;28;20617;-73
2021/06/10 09:48:41;;;;;;;10.67;8.73;;;;;;;-144.99;41.64;51958.94;5028700;28;20236;-73
2021/06/10 09:51:21;;;;;;;9.60;8.30;;;;;;;-144.99;41.56;51932.44;5028513;28;20270;-72
2021/06/10 09:53:47;;;;;;;11.77;9.07;;;;;;;-144.99;41.98;51954.88;5029535;28;20220;-71
2021/06/10 09:56:16;;;;;;;12.17;10.27;;;;;;;-144.99;41.95;51975.25;5028839;28;20207;-70
2021/06/10 09:58:45;;;;;;;9.87;8.10;;;;;;;-144.99;41.82;52016.00;5029039;28;20324;-72
2021/06/10 10:01:17;;;;;;;9.77;8.43;;;;;;;-144.99;42.61;51987.47;5028196;28;20271;-72
2021/06/10 10:03:46;;;;;;;8.03;6.57;;;;;;;-144.99;42.62;52003.78;5028533;28;20213;-73
2021/06/10 10:06:18;;;;;;;13.67;11.10;;;;;;;-144.99;42.97;52007.84;5027747;28;20207;-73
2021/06/10 10:08:47;;;;;;;13.87;12.37;;;;;;;-144.99;43.23;52016.00;5026667;28;20246;-73
2021/06/10 10:11:14;;;;;;;11.97;9.00;;;;;;;-144.99;43.65;51997.66;5023247;28;20405;-72
2021/06/10 10:13:44;;;;;;;10.00;8.93;;;;;;;-144.99;43.51;52007.84;5017743;28;20275;-74
2021/06/10 10:16:15;;;;;;;11.27;9.17;;;;;;;-144.99;43.50;52040.47;5018468;28;20483;-72
2021/06/10 10:18:43;;;;;;;11.70;9.87;;;;;;;-144.99;43.41;51979.31;5026095;28;20226;-73
2021/06/10 10:21:12;;;;;;;11.47;10.27;;;;;;;-144.99;42.86;51971.16;5020616;28;20205;-72
2021/06/10 10:23:38;;;;;;;11.47;10.37;;;;;;;-144.99;43.02;51971.16;5025530;28;20224;-72
2021/06/10 10:26:06;;;;;;;12.53;10.50;;;;;;;-144.99;42.37;51967.09;5024639;28;20212;-73
2021/06/10 10:28:37;;;;;;;12.83;9.40;;;;;;;-144.99;42.31;51971.16;5024993;28;20261;-73
2021/06/10 10:31:06;;;;;;;11.87;9.70;;;;;;;-144.99;42.12;51932.44;5021195;28;20234;-71
2021/06/10 10:33:44;;;;;;;8.87;7.57;;;;;;;-144.99;42.79;51967.09;5025188;28;20215;-72
2021/06/10 10:36:26;;;;;;;10.23;9.17;;;;;;;-144.99;42.61;51960.97;5023316;28;20547;-71
2021/06/10 10:39:03;;;;;;;12.43;9.10;;;;;;;-144.99;42.42;51912.06;5026177;28;20225;-71
2021/06/10 10:41:30;;;;;;;11.73;9.90;;;;;;;-144.99;42.44;51932.44;5023249;28;20371;-71
2021/06/10 10:44:10;;;;;;;10.43;8.60;;;;;;;-144.99;41.65;51910.03;5030744;28;20208;-71
2021/06/10 10:46:40;;;;;;;11.77;10.50;;;;;;;-144.99;41.47;51905.97;5028077;28;20228;-72
2021/06/10 10:49:29;;;;;;;15.70;11.13;;;;;;;-144.99;41.71;51926.34;5029043;28;20373;-71
2021/06/10 10:52:15;;;;;;;13.30;10.53;;;;;;;-144.99;41.62;51914.09;5023066;28;20259;-72
2021/06/10 10:54:43;;;;;;;12.80;11.43;;;;;;;-144.99;41.11;51934.50;5024751;28;20315;-72
2021/06/10 10:57:40;;;;;;;13.93;11.70;;;;;;;-144.99;41.28;51938.56;5028173;28;20208;-71
2021/06/10 11:00:09;;;;;;;13.53;10.37;;;;;;;-144.99;41.53;51983.41;5024548;28;20202;-70
2021/06/10 11:02:39;;;;;;;13.50;9.53;;;;;;;-144.99;41.38;51922.25;5029467;28;20216;-71
2021/06/10 11:05:09;;;;;;;9.07;8.00;;;;;;;-144.99;41.27;51940.59;5028085;28;20220;-71
2021/06/10 11:07:54;;;;;;;13.43;9.67;;;;;;;-144.99;40.85;51901.88;5026686;28;20354;-70
2021/06/10 11:11:09;;;;;;;13.00;11.70;;;;;;;-144.99;40.28;51928.38;5023725;28;20395;-71
2021/06/10 11:13:48;;;;;;;11.13;9.57;;;;;;;-144.99;40.74;51930.41;5027898;28;20213;-71
2021/06/10 11:16:18;;;;;;;9.53;7.23;;;;;;;-144.99;41.06;51934.50;5025128;28;20255;-71
2021/06/10 11:19:01;;;;;;;12.47;9.83;;;;;;;-144.99;41.18;51940.59;5028998;28;20237;-71